Thunder radar more information blitzortung!


Rain radar more information rain snow radar


Besuchen Sie unsere anderen Wetter Stationen:

Template documentation
and downloads

And another site


Sie finden unser Wetter-Infos auch auf:

warn

European Weather Network

WeatherCloud

Weather Underground

AWEKAS

HAMweather, WeatherForYou, PWS Weather

wettercom

Neuwetter

Wetter Netzwerk Deutschland



METAR-Meldungen aus der Umgebung

   
EDDW - Bremen
Aktualisierung: 20-02-2018 19:50
Klar  
Klar  
   Wind: NO 11.1 km/h
Wind: NO 11.1 km/h
Temperatur: 0°C
Gefühlt: -3°C
Taupunkt: -4°C
Luftfeuchte: 75%
Luftdruck: 1023 hPa
Sichtbarkeit: More than 10 km
Bewölkung: Klar
EDDW 201850Z 05006KT CAVOK 00/M04 Q1023 NOSIG
EDDT - Berlin
Aktualisierung: 20-02-2018 19:50
Klar  
Klar  
   Wind: NO 9.3 km/h
Wind: NO 9.3 km/h
Temperatur: 1°C
Gefühlt: -2°C
Taupunkt: -5°C
Luftfeuchte: 65%
Luftdruck: 1022 hPa
Sichtbarkeit: More than 10 km
Bewölkung: Klar
EDDT 201850Z 05005KT 020V080 CAVOK 01/M05 Q1022 NOSIG
EDDF - Frankfurt
Aktualisierung: 20-02-2018 19:50
Stark bewölkt  
Stark bewölkt  
   Wind: NNO 13 km/h
Wind: NNO 13 km/h
Temperatur: 3°C
Gefühlt: -1°C
Taupunkt: -5°C
Luftfeuchte: 56%
Luftdruck: 1018 hPa
Bewölkt: Stark bewölkt
Sichtbarkeit: More than 10 km
Bewölkung: Stark bewölkt 4400 ft
EDDF 201850Z 03007KT 360V070 9999 BKN044 03/M05 Q1018 NOSIG
EDDM - Mnchen
Aktualisierung: 20-02-2018 19:50
Leichter Schneefall, Nebel, Stark bewölkt  
Leichter Schneefall, Nebel, Stark bewölkt  
   Wind: NW 3.7 km/h
Wind: NW 3.7 km/h
Temperatur: -3°C
Taupunkt: -4°C
Luftfeuchte: 93%
Luftdruck: 1015 hPa
Bewölkt: Stark bewölkt
Sichtbarkeit: 3.5 km
Bewölkung: Stark bewölkt 1100 ft,
Stark bewölkt 8000 ft
EDDM 201850Z 32002KT 3500 -SN BR BKN011 BKN080 M03/M04 Q1015 R88/290095 TEMPO 2500 SCT010 BKN020
EDDH - Hamburg
Aktualisierung: 20-02-2018 19:50
Klar  
Klar  
   Wind: NNO 7.4 km/h
Wind: NNO 7.4 km/h
Temperatur: 0°C
Gefühlt: -3°C
Taupunkt: -3°C
Luftfeuchte: 80%
Luftdruck: 1023 hPa
Sichtbarkeit: More than 10 km
Bewölkung: Klar
EDDH 201850Z 03004KT CAVOK 00/M03 Q1023 NOSIG
EDDL - Dsseldorf
Aktualisierung: 20-02-2018 19:50
Klar  
Klar  
   Wind: NNO 16.7 km/h
Wind: NNO 16.7 km/h
Temperatur: 2°C
Gefühlt: -2°C
Taupunkt: -4°C
Luftfeuchte: 65%
Luftdruck: 1020 hPa
Sichtbarkeit: More than 10 km
Bewölkung: Klar
EDDL 201850Z 03009KT CAVOK 02/M04 Q1020 NOSIG

Script entwickelt von  Saratoga-weather.org Angepasst für das Template von  Weerstation Leuven

Von uns verwendete Ausrüstung:

Wetterstation
Davis VP2

Wetterprogramm
Meteobridge

WetterComputer
Asus WL -330N3G

Davis VP2

Meteobridge

Asus WL -330N3G